createdAt,value
2022-12-25T00:01:08.801Z,7.60
2022-12-25T00:03:39.036Z,4.47
2022-12-25T00:06:08.678Z,5.70
2022-12-25T00:08:38.606Z,7.17
2022-12-25T00:11:10.494Z,8.10
2022-12-25T00:13:39.661Z,6.17
2022-12-25T00:16:09.435Z,7.97
2022-12-25T00:18:38.812Z,7.17
2022-12-25T00:21:08.679Z,11.83
2022-12-25T00:23:38.064Z,9.07
2022-12-25T00:26:07.705Z,6.43
2022-12-25T00:28:38.825Z,8.70
2022-12-25T00:31:08.728Z,4.30
2022-12-25T00:33:38.341Z,5.60
2022-12-25T00:36:08.272Z,6.03
2022-12-25T00:38:38.373Z,7.03
2022-12-25T00:41:08.780Z,5.47
2022-12-25T00:43:39.999Z,5.30
2022-12-25T00:46:09.497Z,6.60
2022-12-25T00:48:38.698Z,10.10
2022-12-25T00:51:09.202Z,5.10
2022-12-25T00:53:38.473Z,8.90
2022-12-25T00:56:08.749Z,4.70
2022-12-25T00:58:39.838Z,4.40
2022-12-25T01:01:09.366Z,5.57
2022-12-25T01:03:38.517Z,5.13
2022-12-25T01:06:08.966Z,7.63
2022-12-25T01:08:39.120Z,9.40
2022-12-25T01:11:08.384Z,8.33
2022-12-25T01:13:38.366Z,6.00
2022-12-25T01:16:10.265Z,6.90
2022-12-25T01:18:39.847Z,5.83
2022-12-25T01:21:09.239Z,7.33
2022-12-25T01:23:38.553Z,5.97
2022-12-25T01:26:07.936Z,5.37
2022-12-25T01:28:37.171Z,5.90
2022-12-25T01:31:06.752Z,6.80
2022-12-25T01:33:37.454Z,6.80
2022-12-25T01:36:07.553Z,10.83
2022-12-25T01:38:36.873Z,5.77
2022-12-25T01:41:06.235Z,6.20
2022-12-25T01:43:36.334Z,5.40
2022-12-25T01:46:05.900Z,8.53
2022-12-25T01:48:36.676Z,8.20
2022-12-25T01:51:08.730Z,6.87
2022-12-25T01:53:38.043Z,8.73
2022-12-25T01:56:09.053Z,6.90
2022-12-25T01:58:38.498Z,7.90
2022-12-25T02:01:32.871Z,7.30
2022-12-25T02:04:06.939Z,9.20
2022-12-25T02:06:37.612Z,7.27
2022-12-25T02:09:06.978Z,9.70
2022-12-25T02:11:53.886Z,6.40
2022-12-25T02:14:23.330Z,9.37
2022-12-25T02:16:58.792Z,8.70
2022-12-25T02:19:39.495Z,7.43
2022-12-25T02:22:17.355Z,7.20
2022-12-25T02:25:04.981Z,7.73
2022-12-25T02:30:27.825Z,10.30
2022-12-25T02:33:19.477Z,9.70
2022-12-25T02:35:52.099Z,7.20
2022-12-25T02:38:23.387Z,9.97
2022-12-25T02:40:52.852Z,8.23
2022-12-25T02:43:40.647Z,40.17
2022-12-25T02:46:29.670Z,34.03
2022-12-25T02:49:18.591Z,14.07
2022-12-25T02:52:07.691Z,10.97
2022-12-25T02:54:57.233Z,11.90
2022-12-25T02:58:01.010Z,7.80
2022-12-25T03:00:54.084Z,8.83
2022-12-25T03:03:42.930Z,6.83
2022-12-25T03:06:30.634Z,0.80
2022-12-25T03:09:20.851Z,3.00
2022-12-25T03:11:51.311Z,1.23
2022-12-25T03:14:37.974Z,0.90
2022-12-25T03:17:07.393Z,0.80
2022-12-25T03:19:55.382Z,0.80
2022-12-25T03:22:44.012Z,1.27
2022-12-25T03:25:30.795Z,0.80
2022-12-25T03:28:00.670Z,0.90
2022-12-25T03:30:49.465Z,6.03
2022-12-25T03:33:44.657Z,2.03
2022-12-25T03:36:14.711Z,2.13
2022-12-25T03:39:04.157Z,0.90
2022-12-25T03:41:55.016Z,0.90
2022-12-25T03:44:52.643Z,3.37
2022-12-25T03:47:50.412Z,0.90
2022-12-25T03:50:38.145Z,0.90
2022-12-25T03:53:29.985Z,1.43
2022-12-25T03:56:20.018Z,1.77
2022-12-25T03:59:10.661Z,0.80
2022-12-25T04:01:57.893Z,0.80
2022-12-25T04:04:45.124Z,1.00
2022-12-25T04:07:31.903Z,1.37
2022-12-25T04:10:19.882Z,1.20
2022-12-25T04:13:06.902Z,1.10
2022-12-25T04:15:53.618Z,0.83
2022-12-25T04:18:40.301Z,0.90
2022-12-25T04:21:27.387Z,0.90
2022-12-25T04:24:14.302Z,0.90
2022-12-25T04:27:02.134Z,0.90
2022-12-25T04:30:03.119Z,0.87
2022-12-25T04:32:49.789Z,1.00
2022-12-25T04:35:38.233Z,0.90
2022-12-25T04:38:07.490Z,0.80
2022-12-25T04:40:37.235Z,0.90
2022-12-25T04:43:08.227Z,11.10
2022-12-25T04:45:37.547Z,10.57
2022-12-25T04:48:06.823Z,10.73
2022-12-25T04:50:36.135Z,11.87
2022-12-25T04:53:05.288Z,15.03
2022-12-25T04:55:34.948Z,12.87
2022-12-25T04:58:04.137Z,12.70
2022-12-25T05:00:34.978Z,11.50
2022-12-25T05:03:04.375Z,10.20
2022-12-25T05:05:33.710Z,13.53
2022-12-25T05:08:05.949Z,8.03
2022-12-25T05:10:35.609Z,10.30
2022-12-25T05:13:04.753Z,9.63
2022-12-25T05:15:35.366Z,9.07
2022-12-25T05:18:04.697Z,9.77
2022-12-25T05:20:39.754Z,12.47
2022-12-25T05:23:09.740Z,8.43
2022-12-25T05:25:41.082Z,7.30
2022-12-25T05:28:10.479Z,9.73
2022-12-25T05:30:41.161Z,9.03
2022-12-25T05:33:10.566Z,10.03
2022-12-25T05:35:40.154Z,8.80
2022-12-25T05:38:09.833Z,12.77
2022-12-25T05:40:41.173Z,8.63
2022-12-25T05:43:10.589Z,9.33
2022-12-25T05:45:41.387Z,7.47
2022-12-25T05:48:11.163Z,9.93
2022-12-25T05:50:40.415Z,8.53
2022-12-25T05:53:10.383Z,10.40
2022-12-25T05:55:40.105Z,7.57
2022-12-25T05:58:09.781Z,8.73
2022-12-25T06:00:39.336Z,7.43
2022-12-25T06:03:10.068Z,6.87
2022-12-25T06:05:40.267Z,10.70
2022-12-25T06:08:09.762Z,7.70
2022-12-25T06:10:38.968Z,14.00
2022-12-25T06:13:08.157Z,8.60
2022-12-25T06:15:37.314Z,12.40
2022-12-25T06:18:06.613Z,7.97
2022-12-25T06:20:37.415Z,7.60
2022-12-25T06:23:06.645Z,8.47
2022-12-25T06:25:35.976Z,8.47
2022-12-25T06:28:05.344Z,9.37
2022-12-25T06:30:34.754Z,15.17
2022-12-25T06:33:04.027Z,11.70
2022-12-25T06:35:33.149Z,12.30
2022-12-25T06:38:03.717Z,12.13
2022-12-25T06:40:32.876Z,11.77
2022-12-25T06:43:02.219Z,10.90
2022-12-25T06:45:31.401Z,11.50
2022-12-25T06:48:00.942Z,12.53
2022-12-25T06:50:30.085Z,11.33
2022-12-25T06:52:59.374Z,8.27
2022-12-25T06:55:30.039Z,10.93
2022-12-25T06:57:59.226Z,11.90
2022-12-25T07:00:28.471Z,18.17
2022-12-25T07:02:58.016Z,16.57
2022-12-25T07:05:27.357Z,19.63
2022-12-25T07:07:56.711Z,13.43
2022-12-25T07:10:25.938Z,13.60
2022-12-25T07:12:56.598Z,15.93
2022-12-25T07:15:26.686Z,21.33
2022-12-25T07:17:56.917Z,21.47
2022-12-25T07:20:26.649Z,14.60
2022-12-25T07:22:55.983Z,11.50
2022-12-25T07:25:25.218Z,13.93
2022-12-25T07:27:54.510Z,9.30
2022-12-25T07:30:25.240Z,11.33
2022-12-25T07:32:54.505Z,14.07
2022-12-25T07:35:23.713Z,11.30
2022-12-25T07:37:53.111Z,8.77
2022-12-25T07:40:22.318Z,13.13
2022-12-25T07:42:51.914Z,14.93
2022-12-25T07:45:21.126Z,14.73
2022-12-25T07:47:54.985Z,19.83
2022-12-25T07:50:24.680Z,10.03
2022-12-25T07:52:53.820Z,8.80
2022-12-25T07:55:23.065Z,10.33
2022-12-25T07:57:52.249Z,13.13
2022-12-25T08:00:21.926Z,12.27
2022-12-25T08:02:52.911Z,14.97
2022-12-25T08:05:22.364Z,11.30
2022-12-25T08:07:57.765Z,12.30
2022-12-25T08:10:28.672Z,12.40
2022-12-25T08:12:58.061Z,15.30
2022-12-25T08:15:27.213Z,14.20
2022-12-25T08:17:57.848Z,10.20
2022-12-25T08:20:27.021Z,11.40
2022-12-25T08:22:56.154Z,9.67
2022-12-25T08:25:25.413Z,12.13
2022-12-25T08:27:54.571Z,16.40
2022-12-25T08:30:23.791Z,14.60
2022-12-25T08:32:52.951Z,20.67
2022-12-25T08:35:23.585Z,16.13
2022-12-25T08:37:52.759Z,14.10
2022-12-25T08:40:22.026Z,11.90
2022-12-25T08:42:51.140Z,14.43
2022-12-25T08:45:20.548Z,15.40
2022-12-25T08:47:49.749Z,15.97
2022-12-25T08:50:18.970Z,14.70
2022-12-25T08:52:49.783Z,13.37
2022-12-25T08:55:19.185Z,14.27
2022-12-25T08:57:48.357Z,18.93
2022-12-25T09:00:18.195Z,21.03
2022-12-25T09:02:47.555Z,14.50
2022-12-25T09:05:16.958Z,14.17
2022-12-25T09:07:46.061Z,17.00
2022-12-25T09:10:16.727Z,14.50
2022-12-25T09:12:45.919Z,16.40
2022-12-25T09:15:15.133Z,13.63
2022-12-25T09:17:44.588Z,16.40
2022-12-25T09:20:13.842Z,12.20
2022-12-25T09:22:43.046Z,14.73
2022-12-25T09:25:12.744Z,12.80
2022-12-25T09:27:44.182Z,13.60
2022-12-25T09:30:13.607Z,17.07
2022-12-25T09:32:42.883Z,15.83
2022-12-25T09:35:14.037Z,11.87
2022-12-25T09:37:43.296Z,14.10
2022-12-25T09:40:16.119Z,13.20
2022-12-25T09:42:47.168Z,18.23
2022-12-25T09:45:17.751Z,15.20
2022-12-25T09:47:48.009Z,15.60
2022-12-25T09:50:19.312Z,17.90
2022-12-25T09:52:51.194Z,19.33
2022-12-25T09:55:22.609Z,18.90
2022-12-25T09:57:54.589Z,14.90
2022-12-25T10:00:25.169Z,16.13
2022-12-25T10:03:03.105Z,18.10
2022-12-25T10:05:46.692Z,15.33
2022-12-25T10:08:20.488Z,17.57
2022-12-25T10:10:53.066Z,15.27
2022-12-25T10:13:34.203Z,12.40
2022-12-25T10:16:10.149Z,15.00
2022-12-25T10:18:54.326Z,10.83
2022-12-25T10:21:24.793Z,13.30
2022-12-25T10:23:56.643Z,10.57
2022-12-25T10:26:26.460Z,10.70
2022-12-25T10:28:59.245Z,9.20
2022-12-25T10:31:30.562Z,11.50
2022-12-25T10:33:59.813Z,17.33
2022-12-25T10:36:30.804Z,16.90
2022-12-25T10:39:00.147Z,10.57
2022-12-25T10:41:37.083Z,14.90
2022-12-25T10:44:20.400Z,9.47
2022-12-25T10:46:50.614Z,12.50
2022-12-25T10:49:21.955Z,14.70
2022-12-25T10:51:51.293Z,13.53
2022-12-25T10:54:25.264Z,7.20
2022-12-25T10:56:55.481Z,8.97
2022-12-25T10:59:26.588Z,8.53
2022-12-25T11:01:56.019Z,10.33
2022-12-25T11:04:28.837Z,10.50
2022-12-25T11:06:59.499Z,7.67
2022-12-25T11:09:28.879Z,6.83
2022-12-25T11:11:58.161Z,7.77
2022-12-25T11:14:30.811Z,4.17
2022-12-25T11:17:09.293Z,4.60
2022-12-25T11:19:38.617Z,5.50
2022-12-25T11:22:19.092Z,4.47
2022-12-25T11:24:48.540Z,7.13
2022-12-25T11:27:23.499Z,5.43
2022-12-25T11:29:55.590Z,6.47
2022-12-25T11:32:28.445Z,4.73
2022-12-25T11:34:58.209Z,11.00
2022-12-25T11:37:34.742Z,5.03
2022-12-25T11:40:04.472Z,6.00
2022-12-25T11:42:35.691Z,3.13
2022-12-25T11:45:08.068Z,5.00
2022-12-25T11:47:39.168Z,5.50
2022-12-25T11:50:16.569Z,7.90
2022-12-25T11:52:47.242Z,8.03
2022-12-25T11:55:18.861Z,8.10
2022-12-25T11:57:53.323Z,7.23
2022-12-25T12:00:24.337Z,9.63
2022-12-25T12:02:56.297Z,6.33
2022-12-25T12:05:26.912Z,7.30
2022-12-25T12:07:59.688Z,9.90
2022-12-25T12:10:33.476Z,10.17
2022-12-25T12:13:08.575Z,10.03
2022-12-25T12:15:43.607Z,16.60
2022-12-25T12:18:21.475Z,11.33
2022-12-25T12:21:00.360Z,10.40
2022-12-25T12:23:30.863Z,9.00
2022-12-25T12:26:00.264Z,11.50
2022-12-25T12:28:31.889Z,11.33
2022-12-25T12:31:04.642Z,12.23
2022-12-25T12:33:36.557Z,12.87
2022-12-25T12:36:06.559Z,9.00
2022-12-25T12:38:37.302Z,7.80
2022-12-25T12:41:07.972Z,12.63
2022-12-25T12:43:38.181Z,10.23
2022-12-25T12:46:15.710Z,9.73
2022-12-25T12:48:46.081Z,9.63
2022-12-25T12:51:16.231Z,9.93
2022-12-25T12:53:45.974Z,9.47
2022-12-25T12:56:19.272Z,13.00
2022-12-25T12:58:51.317Z,8.90
2022-12-25T13:01:40.795Z,11.60
2022-12-25T13:04:20.324Z,9.93
2022-12-25T13:06:51.420Z,10.17
2022-12-25T13:09:27.771Z,12.80
2022-12-25T13:11:57.324Z,9.23
2022-12-25T13:14:26.732Z,8.20
2022-12-25T13:16:57.486Z,9.30
2022-12-25T13:19:28.023Z,8.70
2022-12-25T13:21:58.131Z,11.50
2022-12-25T13:24:28.338Z,17.07
2022-12-25T13:26:57.713Z,12.00
2022-12-25T13:29:33.294Z,13.63
2022-12-25T13:32:04.913Z,14.30
2022-12-25T13:34:35.162Z,9.13
2022-12-25T13:37:09.531Z,7.87
2022-12-25T13:39:39.411Z,11.57
2022-12-25T13:42:10.749Z,11.23
2022-12-25T13:44:44.663Z,10.83
2022-12-25T13:47:22.422Z,10.43
2022-12-25T13:49:52.613Z,11.30
2022-12-25T13:52:23.211Z,8.03
2022-12-25T13:54:56.588Z,8.10
2022-12-25T13:57:27.425Z,7.40
2022-12-25T13:59:57.443Z,5.47
2022-12-25T14:02:30.775Z,7.90
2022-12-25T14:05:00.226Z,12.17
2022-12-25T14:07:29.620Z,9.43
2022-12-25T14:10:00.429Z,9.33
2022-12-25T14:12:31.393Z,6.57
2022-12-25T14:15:01.174Z,8.13
2022-12-25T14:17:31.859Z,9.00
2022-12-25T14:20:07.979Z,9.73
2022-12-25T14:22:38.730Z,7.87
2022-12-25T14:25:16.229Z,7.70
2022-12-25T14:27:50.871Z,11.70
2022-12-25T14:30:20.599Z,8.60
2022-12-25T14:32:55.620Z,8.03
2022-12-25T14:35:25.020Z,8.70
2022-12-25T14:38:00.294Z,9.57
2022-12-25T14:40:31.222Z,10.93
2022-12-25T14:43:00.967Z,8.50
2022-12-25T14:45:31.577Z,6.70
2022-12-25T14:48:04.446Z,8.07
2022-12-25T14:50:36.734Z,10.70
2022-12-25T14:53:06.656Z,6.97
2022-12-25T14:55:35.876Z,11.67
2022-12-25T14:58:06.044Z,9.47
2022-12-25T15:00:37.156Z,9.70
2022-12-25T15:03:09.156Z,8.90
2022-12-25T15:05:39.514Z,9.40
2022-12-25T15:08:21.361Z,10.10
2022-12-25T15:11:01.202Z,11.20
2022-12-25T15:13:32.074Z,7.53
2022-12-25T15:16:04.374Z,9.13
2022-12-25T15:18:38.352Z,10.60
2022-12-25T15:21:08.120Z,11.07
2022-12-25T15:23:37.316Z,11.13
2022-12-25T15:26:06.592Z,13.20
2022-12-25T15:28:35.810Z,13.20
2022-12-25T15:31:05.252Z,12.20
2022-12-25T15:33:42.234Z,10.80
2022-12-25T15:36:13.737Z,10.77
2022-12-25T15:38:43.366Z,11.70
2022-12-25T15:41:35.975Z,13.13
2022-12-25T15:44:06.546Z,12.20
2022-12-25T15:46:36.223Z,15.07
2022-12-25T15:49:07.015Z,12.63
2022-12-25T15:51:36.363Z,15.40
2022-12-25T15:54:05.573Z,11.40
2022-12-25T15:56:37.644Z,15.63
2022-12-25T15:59:06.881Z,14.43
2022-12-25T16:01:36.700Z,14.07
2022-12-25T16:04:07.420Z,15.70
2022-12-25T16:06:36.554Z,11.80
2022-12-25T16:09:05.927Z,15.20
2022-12-25T16:11:35.221Z,23.97
2022-12-25T16:14:04.386Z,17.13
2022-12-25T16:16:33.663Z,15.13
2022-12-25T16:19:02.844Z,16.60
2022-12-25T16:21:37.093Z,15.60
2022-12-25T16:24:06.739Z,14.87
2022-12-25T16:26:35.962Z,15.70
2022-12-25T16:29:07.565Z,25.30
2022-12-25T16:31:37.569Z,16.47
2022-12-25T16:34:07.133Z,16.90
2022-12-25T16:36:38.151Z,15.77
2022-12-25T16:39:07.850Z,16.43
2022-12-25T16:41:36.988Z,15.53
2022-12-25T16:44:10.266Z,16.33
2022-12-25T16:46:39.747Z,20.07
2022-12-25T16:49:09.012Z,16.93
2022-12-25T16:51:39.742Z,19.70
2022-12-25T16:54:08.904Z,18.17
2022-12-25T16:56:38.642Z,26.13
2022-12-25T16:59:07.810Z,19.10
2022-12-25T17:01:38.240Z,25.30
2022-12-25T17:04:07.542Z,24.53
2022-12-25T17:06:37.326Z,22.93
2022-12-25T17:09:08.084Z,27.73
2022-12-25T17:11:37.380Z,24.00
2022-12-25T17:14:07.253Z,23.17
2022-12-25T17:16:37.848Z,22.93
2022-12-25T17:19:09.911Z,22.63
2022-12-25T17:21:39.410Z,22.70
2022-12-25T17:24:11.397Z,24.17
2022-12-25T17:26:41.815Z,22.83
2022-12-25T17:29:10.953Z,21.10
2022-12-25T17:31:40.779Z,24.70
2022-12-25T17:34:10.344Z,24.77
2022-12-25T17:36:39.616Z,22.53
2022-12-25T17:39:10.472Z,33.50
2022-12-25T17:41:39.800Z,24.63
2022-12-25T17:44:09.044Z,26.13
2022-12-25T17:46:38.592Z,24.73
2022-12-25T17:49:08.777Z,29.97
2022-12-25T17:51:37.991Z,25.70
2022-12-25T17:54:07.250Z,29.03
2022-12-25T17:56:37.957Z,29.07
2022-12-25T17:59:09.819Z,32.50
2022-12-25T18:01:40.212Z,26.77
2022-12-25T18:04:09.659Z,27.40
2022-12-25T18:06:39.149Z,25.57
2022-12-25T18:09:09.935Z,37.20
2022-12-25T18:11:42.102Z,29.10
2022-12-25T18:14:13.643Z,31.80
2022-12-25T18:16:44.458Z,30.70
2022-12-25T18:19:14.586Z,29.57
2022-12-25T18:21:43.935Z,27.60
2022-12-25T18:24:13.616Z,33.30
2022-12-25T18:26:44.278Z,34.07
2022-12-25T18:29:13.641Z,26.43
2022-12-25T18:31:44.751Z,29.40
2022-12-25T18:34:14.174Z,29.60
2022-12-25T18:36:43.434Z,31.70
2022-12-25T18:39:13.968Z,27.07
2022-12-25T18:41:58.447Z,28.80
2022-12-25T18:44:27.902Z,30.33
2022-12-25T18:46:57.142Z,32.13
2022-12-25T18:49:26.347Z,30.73
2022-12-25T18:52:47.714Z,37.60
2022-12-25T18:54:44.844Z,30.97
2022-12-25T18:57:15.595Z,33.70
2022-12-25T18:59:44.955Z,32.07
2022-12-25T19:02:14.217Z,30.90
2022-12-25T19:04:44.494Z,26.53
2022-12-25T19:07:13.784Z,36.50
2022-12-25T19:09:43.429Z,39.23
2022-12-25T19:12:12.691Z,34.23
2022-12-25T19:14:47.304Z,28.63
2022-12-25T19:17:17.858Z,28.13
2022-12-25T19:19:47.206Z,35.73
2022-12-25T19:22:16.508Z,27.93
2022-12-25T19:24:45.828Z,33.73
2022-12-25T19:27:15.141Z,34.33
2022-12-25T19:29:45.797Z,32.53
2022-12-25T19:32:15.041Z,34.33
2022-12-25T19:34:44.265Z,36.57
2022-12-25T19:37:13.453Z,31.77
2022-12-25T19:39:46.961Z,29.60
2022-12-25T19:42:16.621Z,28.47
2022-12-25T19:44:47.362Z,29.50
2022-12-25T19:47:16.654Z,36.07
2022-12-25T19:49:49.496Z,29.00
2022-12-25T19:52:22.004Z,29.83
2022-12-25T19:54:52.762Z,27.40
2022-12-25T19:57:22.087Z,28.07
2022-12-25T19:59:52.924Z,27.40
2022-12-25T20:02:22.264Z,26.80
2022-12-25T20:04:51.541Z,31.90
2022-12-25T20:07:20.831Z,36.97
2022-12-25T20:09:50.019Z,28.90
2022-12-25T20:12:19.522Z,32.27
2022-12-25T20:14:49.577Z,29.87
2022-12-25T20:17:20.486Z,31.57
2022-12-25T20:19:49.604Z,39.10
2022-12-25T20:22:18.770Z,38.47
2022-12-25T20:24:49.248Z,33.13
2022-12-25T20:27:18.756Z,38.13
2022-12-25T20:29:47.981Z,42.80
2022-12-25T20:32:17.511Z,46.57
2022-12-25T20:34:48.656Z,37.30
2022-12-25T20:37:17.933Z,35.67
2022-12-25T20:39:47.140Z,36.03
2022-12-25T20:42:16.675Z,36.50
2022-12-25T20:44:46.132Z,37.70
2022-12-25T20:47:15.359Z,42.77
2022-12-25T20:49:44.589Z,35.07
2022-12-25T20:52:15.308Z,39.00
2022-12-25T20:54:44.470Z,37.27
2022-12-25T20:57:13.749Z,35.70
2022-12-25T20:59:44.447Z,34.83
2022-12-25T21:02:33.567Z,37.47
2022-12-25T21:05:03.357Z,35.93
2022-12-25T21:07:34.045Z,22.13
2022-12-25T21:10:03.171Z,36.40
2022-12-25T21:12:32.650Z,22.93
2022-12-25T21:15:02.029Z,30.10
2022-12-25T21:17:31.220Z,31.37
2022-12-25T21:20:00.449Z,38.00
2022-12-25T21:22:30.655Z,25.63
2022-12-25T21:25:01.334Z,22.60
2022-12-25T21:27:31.453Z,17.73
2022-12-25T21:30:14.360Z,18.97
2022-12-25T21:33:02.613Z,18.50
2022-12-25T21:35:33.249Z,30.23
2022-12-25T21:38:02.570Z,25.20
2022-12-25T21:40:35.978Z,21.53
2022-12-25T21:43:06.314Z,24.80
2022-12-25T21:45:35.917Z,16.20
2022-12-25T21:48:05.533Z,9.73
2022-12-25T21:50:52.081Z,11.73
2022-12-25T21:53:22.047Z,8.53
2022-12-25T21:55:59.540Z,15.90
2022-12-25T21:58:29.143Z,13.77
2022-12-25T22:00:58.594Z,9.50
2022-12-25T22:03:28.005Z,10.00
2022-12-25T22:06:21.207Z,12.13
2022-12-25T22:08:51.150Z,10.63
2022-12-25T22:11:39.200Z,21.70
2022-12-25T22:14:51.103Z,12.70
2022-12-25T22:17:33.591Z,7.20
2022-12-25T22:20:02.927Z,12.30
2022-12-25T22:22:32.860Z,6.90
2022-12-25T22:25:03.212Z,12.43
2022-12-25T22:27:34.903Z,10.73
2022-12-25T22:30:04.165Z,12.57
2022-12-25T22:32:33.348Z,14.13
2022-12-25T22:35:02.676Z,17.20
2022-12-25T22:37:31.859Z,19.23
2022-12-25T22:40:02.695Z,13.60
2022-12-25T22:42:31.880Z,14.00
2022-12-25T22:45:02.632Z,14.87
2022-12-25T22:47:31.766Z,16.50
2022-12-25T22:50:00.974Z,14.60
2022-12-25T22:52:30.471Z,15.73
2022-12-25T22:54:59.663Z,9.83
2022-12-25T22:57:28.818Z,17.50
2022-12-25T22:59:58.270Z,13.90
2022-12-25T23:02:29.147Z,15.33
2022-12-25T23:04:58.836Z,14.20
2022-12-25T23:07:28.181Z,11.80
2022-12-25T23:09:57.608Z,16.50
2022-12-25T23:12:43.261Z,15.17
2022-12-25T23:15:13.634Z,15.73
2022-12-25T23:18:01.931Z,17.63
2022-12-25T23:20:48.568Z,22.00
2022-12-25T23:23:35.802Z,14.57
2022-12-25T23:26:11.332Z,11.17
2022-12-25T23:28:58.908Z,17.90
2022-12-25T23:31:30.641Z,19.33
2022-12-25T23:34:01.687Z,9.90
2022-12-25T23:36:30.994Z,10.33
2022-12-25T23:39:06.843Z,30.03
2022-12-25T23:41:38.264Z,12.63
2022-12-25T23:44:07.519Z,8.80
2022-12-25T23:46:36.865Z,18.00
2022-12-25T23:49:07.593Z,6.93
2022-12-25T23:51:37.689Z,4.43
2022-12-25T23:54:07.455Z,8.63
2022-12-25T23:56:37.128Z,3.53
2022-12-25T23:59:06.259Z,5.17
